Time;durP1;ratioP1;P1;durP2;ratioP2;P2;SDS_P1;SDS_P2;PMS_P1;PMS_P2;Temp;Humidity;BMP_temperature;BMP_pressure;BME280_temperature;BME280_humidity;BME280_pressure;Samples;Min_cycle;Max_cycle;Signal;HPM_P1;HPM_P2
2023/02/24 00:00:31;;;;;;;8.02;5.00;;;13.40;57.10;;;;;;2580895;53;20932;-83
2023/02/24 00:02:58;;;;;;;8.65;4.53;;;13.40;57.00;;;;;;2580899;53;21012;-84
2023/02/24 00:05:25;;;;;;;8.70;5.05;;;13.30;56.90;;;;;;2338976;53;20920;-84
2023/02/24 00:07:51;;;;;;;9.05;5.07;;;13.30;56.90;;;;;;2339237;53;20917;-84
2023/02/24 00:10:18;;;;;;;8.20;4.75;;;13.20;56.80;;;;;;2581002;53;20976;-85
2023/02/24 00:12:45;;;;;;;7.95;4.62;;;13.20;56.80;;;;;;2581073;53;20996;-84
2023/02/24 00:15:15;;;;;;;8.20;4.55;;;13.10;56.70;;;;;;2581803;53;20984;-84
2023/02/24 00:17:45;;;;;;;7.25;3.97;;;13.10;56.70;;;;;;2582164;53;20972;-84
2023/02/24 00:20:11;;;;;;;8.15;4.37;;;13.00;56.60;;;;;;2338830;53;20960;-84
2023/02/24 00:22:39;;;;;;;7.72;4.95;;;13.00;56.50;;;;;;2338543;53;21008;-84
2023/02/24 00:25:05;;;;;;;7.78;4.90;;;12.90;56.40;;;;;;2581944;53;20913;-84
2023/02/24 00:27:31;;;;;;;8.10;4.90;;;12.80;56.40;;;;;;2339035;54;20937;-84
2023/02/24 00:29:58;;;;;;;10.10;5.43;;;12.80;56.50;;;;;;2580333;53;20974;-84
2023/02/24 00:32:24;;;;;;;9.88;5.90;;;12.70;56.50;;;;;;2574391;53;21474;-84
2023/02/24 00:34:51;;;;;;;9.52;5.45;;;12.70;56.60;;;;;;2338880;53;20948;-84
2023/02/24 00:37:22;;;;;;;9.70;5.62;;;12.60;56.70;;;;;;2580487;53;20997;-83
2023/02/24 00:39:56;;;;;;;6.68;4.40;;;12.60;56.80;;;;;;2581364;53;20945;-84
2023/02/24 00:42:22;;;;;;;10.18;5.45;;;12.50;56.80;;;;;;2581347;53;20932;-85
2023/02/24 00:44:49;;;;;;;7.95;4.45;;;12.50;56.90;;;;;;2581712;53;21456;-84
2023/02/24 00:47:15;;;;;;;10.38;5.07;;;12.50;57.00;;;;;;2581500;53;21235;-84
2023/02/24 00:49:41;;;;;;;9.02;5.00;;;12.40;57.00;;;;;;2581588;53;20955;-85
2023/02/24 00:52:12;;;;;;;10.27;5.53;;;12.40;57.10;;;;;;2581154;53;20907;-83
2023/02/24 00:54:39;;;;;;;10.18;6.47;;;12.40;57.20;;;;;;2576458;53;21001;-83
2023/02/24 00:57:07;;;;;;;13.38;7.53;;;12.40;57.40;;;;;;2577750;53;20937;-84
2023/02/24 00:59:33;;;;;;;9.57;6.03;;;12.40;57.50;;;;;;2582155;53;20948;-84
2023/02/24 01:01:59;;;;;;;10.55;6.18;;;12.40;57.60;;;;;;2581120;53;21989;-84
2023/02/24 01:04:28;;;;;;;9.25;6.03;;;12.40;57.60;;;;;;2582153;53;20956;-84
2023/02/24 01:06:58;;;;;;;9.15;5.47;;;12.40;57.60;;;;;;2582350;53;20944;-84
2023/02/24 01:09:26;;;;;;;9.40;5.70;;;12.40;57.60;;;;;;2581552;53;21071;-84
2023/02/24 01:14:38;;;;;;;8.80;5.60;;;12.40;57.60;;;;;;2582246;53;20979;-83
2023/02/24 01:17:05;;;;;;;9.07;5.15;;;12.40;57.60;;;;;;2339476;53;20925;-84
2023/02/24 01:19:32;;;;;;;10.10;5.70;;;12.40;57.70;;;;;;2574300;53;20906;-84
2023/02/24 01:22:02;;;;;;;9.85;5.30;;;12.40;57.70;;;;;;2578901;53;20881;-83
2023/02/24 01:24:31;;;;;;;9.85;5.60;;;12.40;57.70;;;;;;2581256;53;20988;-85
2023/02/24 01:26:57;;;;;;;10.57;6.37;;;12.40;57.70;;;;;;2578805;53;20981;-83
2023/02/24 01:29:24;;;;;;;9.80;5.82;;;12.40;57.80;;;;;;2571952;53;21794;-85
2023/02/24 01:31:51;;;;;;;11.77;5.80;;;12.40;57.80;;;;;;2581853;53;20956;-83
2023/02/24 01:34:18;;;;;;;9.68;5.50;;;12.40;57.80;;;;;;2581555;53;20928;-84
2023/02/24 01:36:44;;;;;;;13.02;6.93;;;12.40;57.80;;;;;;2581835;53;21244;-83
2023/02/24 01:39:11;;;;;;;10.98;6.28;;;12.40;57.90;;;;;;2581614;53;21833;-84
2023/02/24 01:41:40;;;;;;;12.37;7.60;;;12.40;58.00;;;;;;2338659;54;21032;-84
2023/02/24 01:45:00;;;;;;;12.57;7.37;;;12.40;58.10;;;;;;2339154;54;20917;-84
2023/02/24 01:47:30;;;;;;;12.40;7.50;;;12.40;58.10;;;;;;2581832;53;20937;-84
2023/02/24 01:49:56;;;;;;;10.57;6.78;;;12.40;58.70;;;;;;2581533;53;21801;-84
2023/02/24 01:52:29;;;;;;;11.00;6.07;;;12.50;58.20;;;;;;2339196;53;21079;-84
2023/02/24 01:54:58;;;;;;;11.10;6.32;;;12.50;58.30;;;;;;2582214;53;20944;-84
2023/02/24 01:57:26;;;;;;;10.15;6.78;;;12.50;58.30;;;;;;2338801;53;21024;-84
2023/02/24 01:59:53;;;;;;;12.02;7.50;;;12.50;58.30;;;;;;2340692;53;20993;-84
2023/02/24 02:02:21;;;;;;;11.50;6.75;;;12.50;58.30;;;;;;2581164;53;20929;-84
2023/02/24 02:04:56;;;;;;;10.95;6.03;;;12.50;58.30;;;;;;2339406;54;20993;-84
2023/02/24 02:07:22;;;;;;;11.27;6.72;;;12.60;58.50;;;;;;2577465;53;20916;-83
2023/02/24 02:09:49;;;;;;;11.77;5.93;;;12.60;58.40;;;;;;2340610;53;20936;-84
2023/02/24 02:12:16;;;;;;;10.90;6.30;;;12.60;58.40;;;;;;2581859;53;20909;-84
2023/02/24 02:14:46;;;;;;;11.18;6.28;;;12.60;58.40;;;;;;2581659;53;22098;-85
2023/02/24 02:17:42;;;;;;;11.95;5.28;;;12.60;58.40;;;;;;2583010;53;20949;-84
2023/02/24 02:20:46;;;;;;;10.10;5.75;;;12.70;58.70;;;;;;2582453;53;21027;-85
2023/02/24 02:23:39;;;;;;;13.30;7.60;;;12.70;58.70;;;;;;2582294;53;20960;-84
2023/02/24 02:26:40;;;;;;;16.20;9.02;;;12.70;58.70;;;;;;2582688;53;20973;-85
2023/02/24 02:29:35;;;;;;;17.08;9.30;;;12.70;58.80;;;;;;2338326;53;21442;-86
2023/02/24 02:32:42;;;;;;;14.07;8.30;;;12.70;58.80;;;;;;2581964;53;20928;-84
2023/02/24 02:35:11;;;;;;;13.27;6.53;;;12.70;59.00;;;;;;2581771;53;20917;-85
2023/02/24 02:38:14;;;;;;;12.68;6.57;;;12.70;58.60;;;;;;2582300;53;20951;-84
2023/02/24 02:41:00;;;;;;;13.07;6.50;;;12.80;59.00;;;;;;2582828;53;20968;-84
2023/02/24 02:43:55;;;;;;;13.95;6.72;;;12.80;58.80;;;;;;2339581;53;20964;-84
2023/02/24 02:46:33;;;;;;;18.87;8.50;;;12.80;58.90;;;;;;2582823;53;20912;-84
2023/02/24 02:52:33;;;;;;;11.57;6.57;;;12.80;58.70;;;;;;2339081;53;20944;-83
2023/02/24 02:55:06;;;;;;;11.30;5.95;;;12.90;58.90;;;;;;2338674;53;20980;-84
2023/02/24 02:57:32;;;;;;;;;;;12.80;58.60;;;;;;2584503;53;21204;-84
2023/02/24 03:00:20;;;;;;;11.60;5.65;;;12.90;58.90;;;;;;2580265;53;21057;-84
2023/02/24 03:02:51;;;;;;;17.08;7.20;;;12.90;58.60;;;;;;2337982;54;21808;-83
2023/02/24 03:05:19;;;;;;;18.75;8.15;;;12.90;58.70;;;;;;2338294;53;20949;-84
2023/02/24 03:07:50;;;;;;;16.23;8.63;;;12.90;58.80;;;;;;2338447;54;21711;-84
2023/02/24 03:10:21;;;;;;;16.60;8.30;;;12.90;58.80;;;;;;2337896;53;22066;-84
2023/02/24 03:12:56;;;;;;;21.90;9.20;;;12.90;58.90;;;;;;2337865;53;21540;-84
2023/02/24 03:15:22;;;;;;;18.08;9.60;;;12.90;58.90;;;;;;2580343;53;20932;-84
2023/02/24 03:17:55;;;;;;;20.25;10.43;;;12.90;58.90;;;;;;2580291;53;20943;-84
2023/02/24 03:20:28;;;;;;;17.83;9.63;;;12.90;59.00;;;;;;2338244;53;20929;-84
2023/02/24 03:23:09;;;;;;;19.17;8.85;;;12.90;59.00;;;;;;2579850;53;20928;-84
2023/02/24 03:25:45;;;;;;;16.83;8.80;;;12.90;59.00;;;;;;2337105;54;20937;-84
2023/02/24 03:28:34;;;;;;;16.87;8.00;;;12.90;59.00;;;;;;2580111;53;20980;-85
2023/02/24 03:31:06;;;;;;;15.93;7.75;;;12.90;59.10;;;;;;2580496;53;20973;-84
2023/02/24 03:33:43;;;;;;;13.30;7.00;;;12.90;58.90;;;;;;2581494;53;20932;-84
2023/02/24 03:36:13;;;;;;;14.02;7.45;;;12.90;59.00;;;;;;2334882;53;21056;-84
2023/02/24 03:38:40;;;;;;;12.75;7.00;;;12.90;58.90;;;;;;2581723;53;21341;-84
2023/02/24 03:41:09;;;;;;;12.88;6.47;;;12.90;58.90;;;;;;2581336;53;20955;-84
2023/02/24 03:43:38;;;;;;;11.77;6.15;;;13.00;58.90;;;;;;2338995;53;21083;-85
2023/02/24 03:46:04;;;;;;;14.43;7.07;;;13.00;58.80;;;;;;2581596;53;20956;-84
2023/02/24 03:48:31;;;;;;;13.40;7.22;;;12.90;58.70;;;;;;2581803;53;20926;-83
2023/02/24 03:50:58;;;;;;;14.30;7.60;;;12.90;58.60;;;;;;2581016;53;20912;-84
2023/02/24 03:53:39;;;;;;;16.42;7.87;;;12.90;58.50;;;;;;2581717;53;20972;-83
2023/02/24 03:57:18;;;;;;;13.80;7.28;;;12.90;58.50;;;;;;2572647;53;20950;-82
2023/02/24 03:59:56;;;;;;;13.02;6.43;;;12.90;58.60;;;;;;2581498;53;20961;-84
2023/02/24 04:02:29;;;;;;;11.32;5.65;;;12.80;58.30;;;;;;2342316;53;20924;-84
2023/02/24 04:05:08;;;;;;;13.48;6.10;;;12.80;58.40;;;;;;2582100;53;21524;-85
2023/02/24 04:08:08;;;;;;;11.32;6.00;;;12.70;58.40;;;;;;2581734;53;21937;-85
2023/02/24 04:17:25;;;;;;;8.00;4.95;;;12.70;58.60;;;;;;2581564;53;20945;-84
2023/02/24 04:19:53;;;;;;;7.62;3.70;;;12.60;58.30;;;;;;2334869;53;20973;-85
2023/02/24 04:22:23;;;;;;;10.15;5.07;;;12.60;58.10;;;;;;2581066;53;20945;-84
2023/02/24 04:24:51;;;;;;;13.48;5.85;;;12.50;58.20;;;;;;2338918;53;21060;-85
2023/02/24 04:27:17;;;;;;;8.35;4.80;;;12.50;58.30;;;;;;2580579;53;22010;-84
2023/02/24 04:29:51;;;;;;;13.50;6.55;;;12.50;58.30;;;;;;2339708;53;21004;-84
2023/02/24 04:32:19;;;;;;;12.15;6.15;;;12.40;58.40;;;;;;2338832;54;20830;-83
2023/02/24 04:34:45;;;;;;;12.00;6.55;;;12.40;58.50;;;;;;2581239;53;21009;-84
2023/02/24 04:37:12;;;;;;;12.52;6.30;;;12.40;58.60;;;;;;2339059;54;20928;-84
2023/02/24 04:39:38;;;;;;;9.45;5.25;;;12.40;58.60;;;;;;2581607;53;20988;-83
2023/02/24 04:42:05;;;;;;;8.50;5.12;;;12.40;58.70;;;;;;2581707;53;20989;-84
2023/02/24 04:44:32;;;;;;;8.48;5.07;;;12.40;58.70;;;;;;2579572;53;20980;-84
2023/02/24 04:46:59;;;;;;;7.93;4.47;;;12.40;58.70;;;;;;2332904;53;20998;-85
2023/02/24 04:49:25;;;;;;;8.90;5.15;;;12.40;58.80;;;;;;2582477;53;20988;-84
2023/02/24 04:51:52;;;;;;;9.93;5.00;;;12.40;58.80;;;;;;2582402;53;20988;-85
2023/02/24 04:54:19;;;;;;;9.52;5.05;;;12.40;58.80;;;;;;2579116;53;20933;-84
2023/02/24 04:56:46;;;;;;;7.43;4.43;;;12.40;58.80;;;;;;2575279;53;21729;-85
2023/02/24 04:59:14;;;;;;;10.45;5.37;;;12.40;58.80;;;;;;2581683;53;20940;-85
2023/02/24 05:01:42;;;;;;;9.32;5.65;;;12.40;58.80;;;;;;2582010;53;20960;-84
2023/02/24 05:04:09;;;;;;;8.75;5.10;;;12.40;58.80;;;;;;2581726;53;21820;-84
2023/02/24 05:06:39;;;;;;;8.55;4.57;;;12.50;58.90;;;;;;2339412;53;20988;-85
2023/02/24 05:09:12;;;;;;;7.55;4.00;;;12.40;58.80;;;;;;2581783;53;20920;-84
2023/02/24 05:11:43;;;;;;;6.95;4.15;;;12.40;58.70;;;;;;2339211;53;20992;-85
2023/02/24 05:14:15;;;;;;;7.68;4.62;;;12.40;58.70;;;;;;2339454;53;20944;-84
2023/02/24 05:16:42;;;;;;;;;;;12.40;58.70;;;;;;2343142;53;20926;-84
2023/02/24 05:21:56;;;;;;;12.85;6.32;;;12.40;58.70;;;;;;2582462;53;21667;-84
2023/02/24 05:24:28;;;;;;;12.63;6.97;;;12.40;58.70;;;;;;2582502;53;21406;-85
2023/02/24 05:26:57;;;;;;;13.98;7.90;;;12.40;58.80;;;;;;2339871;53;20941;-84
2023/02/24 05:29:25;;;;;;;14.02;7.03;;;12.40;58.80;;;;;;2582515;53;20937;-84
2023/02/24 05:31:54;;;;;;;13.77;6.82;;;12.40;58.90;;;;;;2339362;54;21268;-84
2023/02/24 05:34:21;;;;;;;16.80;8.65;;;12.40;58.90;;;;;;2339422;53;20892;-83
2023/02/24 05:36:48;;;;;;;16.83;7.78;;;12.40;59.00;;;;;;2339443;53;20921;-85
2023/02/24 05:39:18;;;;;;;16.08;7.57;;;12.40;59.10;;;;;;2582208;53;20941;-84
2023/02/24 05:41:47;;;;;;;17.02;7.22;;;12.40;59.20;;;;;;2581930;53;21012;-83
2023/02/24 05:44:15;;;;;;;17.33;8.10;;;12.40;59.30;;;;;;2339668;54;20948;-85
2023/02/24 05:46:44;;;;;;;13.13;6.93;;;12.40;59.30;;;;;;2581899;53;20964;-85
2023/02/24 05:49:22;;;;;;;15.75;7.28;;;12.40;59.40;;;;;;2581451;53;21802;-84
2023/02/24 05:51:55;;;;;;;12.07;6.40;;;12.40;59.40;;;;;;2581424;53;20980;-84
2023/02/24 05:54:29;;;;;;;11.48;5.93;;;12.40;59.40;;;;;;2339318;53;20933;-84
2023/02/24 05:57:01;;;;;;;13.27;6.40;;;12.40;59.40;;;;;;2339448;53;20987;-84
2023/02/24 05:59:31;;;;;;;12.90;6.35;;;12.40;59.40;;;;;;2545906;53;20957;-84
2023/02/24 06:01:59;;;;;;;12.55;6.57;;;12.50;59.40;;;;;;2335124;53;20914;-84
2023/02/24 06:04:44;;;;;;;16.85;8.00;;;12.50;59.50;;;;;;2339438;53;20929;-84
2023/02/24 06:07:17;;;;;;;17.15;8.68;;;12.50;59.50;;;;;;2339641;53;21009;-84
2023/02/24 06:09:48;;;;;;;14.95;7.87;;;12.50;59.50;;;;;;2339123;53;21000;-84
2023/02/24 06:12:15;;;;;;;14.93;8.73;;;12.50;59.60;;;;;;2581283;53;20929;-84
2023/02/24 06:14:42;;;;;;;15.95;8.50;;;12.50;59.60;;;;;;2581973;53;20948;-84
2023/02/24 06:17:08;;;;;;;17.10;9.20;;;12.50;59.60;;;;;;2337942;53;20967;-84
2023/02/24 06:19:34;;;;;;;18.23;9.70;;;12.50;59.60;;;;;;2580253;53;20901;-84
2023/02/24 06:22:01;;;;;;;21.62;8.98;;;12.50;59.60;;;;;;2581749;53;21390;-84
2023/02/24 06:24:31;;;;;;;16.77;8.85;;;12.50;59.70;;;;;;2582848;53;20924;-84
2023/02/24 06:27:08;;;;;;;14.87;7.95;;;12.50;59.70;;;;;;2339769;54;21967;-84
2023/02/24 06:29:35;;;;;;;14.80;6.65;;;12.50;59.60;;;;;;2339810;54;21386;-84
2023/02/24 06:32:07;;;;;;;12.25;6.20;;;12.50;59.60;;;;;;2334392;53;20882;-84
2023/02/24 06:34:34;;;;;;;15.80;7.53;;;12.50;59.60;;;;;;2582445;53;20945;-84
2023/02/24 06:37:02;;;;;;;16.27;8.48;;;12.50;59.70;;;;;;2339546;54;20929;-85
2023/02/24 06:39:31;;;;;;;17.92;9.35;;;12.50;59.70;;;;;;2582264;53;20957;-84
2023/02/24 06:42:02;;;;;;;21.52;9.48;;;12.60;59.80;;;;;;2581682;53;21029;-84
2023/02/24 06:44:32;;;;;;;15.18;8.70;;;12.60;59.80;;;;;;2582276;53;20919;-84
2023/02/24 06:46:59;;;;;;;16.30;8.35;;;12.50;59.70;;;;;;2544736;53;21414;-85
2023/02/24 06:49:25;;;;;;;22.45;9.43;;;12.50;59.70;;;;;;2339815;53;20996;-84
2023/02/24 06:51:53;;;;;;;17.17;8.55;;;12.60;59.90;;;;;;2581455;53;21516;-84
2023/02/24 06:54:24;;;;;;;17.77;8.90;;;12.60;60.00;;;;;;2582355;53;20984;-83
2023/02/24 06:56:51;;;;;;;15.38;8.63;;;12.60;60.00;;;;;;2339708;53;21015;-84
2023/02/24 06:59:27;;;;;;;16.65;8.63;;;12.60;60.00;;;;;;2339596;54;20881;-85
2023/02/24 07:01:57;;;;;;;15.10;8.35;;;12.60;60.00;;;;;;2338739;53;21285;-84
2023/02/24 07:04:24;;;;;;;17.25;8.77;;;12.60;60.00;;;;;;2340388;54;21556;-84
2023/02/24 07:06:55;;;;;;;16.25;7.97;;;12.60;60.00;;;;;;2581470;53;21710;-83
2023/02/24 07:09:23;;;;;;;18.08;8.45;;;12.60;60.00;;;;;;2339893;53;20909;-84
2023/02/24 07:11:54;;;;;;;14.75;7.68;;;12.60;60.00;;;;;;2581302;53;20960;-85
2023/02/24 07:14:22;;;;;;;16.90;8.27;;;12.60;60.00;;;;;;2581885;53;21003;-84
2023/02/24 07:16:52;;;;;;;16.50;8.90;;;12.60;60.00;;;;;;2581378;53;20905;-85
2023/02/24 07:19:20;;;;;;;19.67;8.77;;;12.60;60.00;;;;;;2581315;53;20952;-85
2023/02/24 07:21:49;;;;;;;18.77;8.88;;;12.60;60.10;;;;;;2581353;53;21047;-84
2023/02/24 07:24:23;;;;;;;18.85;9.10;;;12.60;60.10;;;;;;2338860;54;21015;-83
2023/02/24 07:26:56;;;;;;;19.52;8.93;;;12.60;60.80;;;;;;2580797;53;20916;-84
2023/02/24 07:29:24;;;;;;;19.25;8.88;;;12.60;60.30;;;;;;2337125;54;21011;-83
2023/02/24 07:31:53;;;;;;;24.25;11.27;;;12.60;60.20;;;;;;2579863;53;20976;-84
2023/02/24 07:34:23;;;;;;;22.48;11.35;;;12.60;60.20;;;;;;2579971;53;20920;-84
2023/02/24 07:36:51;;;;;;;35.67;15.80;;;12.60;60.30;;;;;;2579757;53;20944;-84
2023/02/24 07:39:18;;;;;;;26.95;13.15;;;12.70;60.30;;;;;;2580005;53;20940;-84
2023/02/24 07:41:45;;;;;;;21.55;10.88;;;12.60;60.10;;;;;;2579983;53;20944;-83
2023/02/24 07:44:12;;;;;;;23.17;10.68;;;12.70;60.20;;;;;;2580450;53;21051;-84
2023/02/24 07:46:39;;;;;;;18.83;9.65;;;12.60;60.10;;;;;;2339007;53;20992;-84
2023/02/24 07:49:08;;;;;;;20.95;10.30;;;12.70;60.20;;;;;;2581554;53;21453;-85
2023/02/24 07:51:34;;;;;;;16.12;8.93;;;12.70;60.20;;;;;;2338357;54;20913;-83
2023/02/24 07:54:02;;;;;;;19.83;9.60;;;12.70;60.20;;;;;;2581292;53;20921;-85
2023/02/24 07:56:29;;;;;;;16.73;8.05;;;12.70;60.20;;;;;;2339786;54;21303;-84
2023/02/24 07:59:06;;;;;;;14.02;7.37;;;12.70;60.20;;;;;;2583666;53;21067;-85
2023/02/24 08:01:48;;;;;;;17.80;8.38;;;12.80;60.40;;;;;;2583808;53;20950;-85
2023/02/24 08:04:18;;;;;;;13.10;6.83;;;12.70;60.10;;;;;;2583771;53;20940;-84
2023/02/24 08:06:45;;;;;;;18.05;9.50;;;12.80;60.20;;;;;;2582665;53;21452;-84
2023/02/24 08:09:19;;;;;;;17.73;8.75;;;12.80;60.10;;;;;;2339583;53;21900;-85
2023/02/24 08:11:53;;;;;;;15.30;8.48;;;12.80;60.20;;;;;;2581749;53;20928;-83
2023/02/24 08:14:31;;;;;;;17.17;9.05;;;12.80;60.30;;;;;;2339603;53;20980;-84
2023/02/24 08:16:58;;;;;;;14.77;8.23;;;12.80;61.10;;;;;;2580975;53;21023;-83
2023/02/24 08:19:31;;;;;;;14.43;8.07;;;12.80;60.30;;;;;;2581684;53;20920;-83
2023/02/24 08:22:10;;;;;;;21.05;9.52;;;12.80;60.40;;;;;;2580378;53;21429;-86
2023/02/24 08:24:36;;;;;;;18.50;9.65;;;12.80;60.40;;;;;;2580861;53;20897;-84
2023/02/24 08:27:03;;;;;;;19.70;10.05;;;12.90;60.50;;;;;;2580889;53;20893;-84
2023/02/24 08:32:36;;;;;;;16.02;8.38;;;12.90;60.70;;;;;;2580840;53;20933;-84
2023/02/24 08:35:05;;;;;;;16.02;8.02;;;12.90;60.70;;;;;;2579987;53;21021;-87
2023/02/24 08:37:38;;;;;;;16.50;8.63;;;13.00;60.60;;;;;;2581247;53;20924;-84
2023/02/24 08:40:36;;;;;;;19.92;10.23;;;13.00;60.70;;;;;;2580423;53;21076;-83
2023/02/24 08:43:29;;;;;;;17.95;8.80;;;13.00;60.80;;;;;;2580298;53;20940;-86
2023/02/24 08:46:11;;;;;;;15.77;8.93;;;13.00;60.80;;;;;;2337544;53;21535;-83
2023/02/24 08:48:41;;;;;;;17.95;8.85;;;13.00;60.70;;;;;;2576545;53;20966;-82
2023/02/24 08:51:52;;;;;;;20.52;10.15;;;13.00;60.60;;;;;;2574915;53;20999;-82
2023/02/24 08:54:25;;;;;;;14.73;7.40;;;13.10;61.10;;;;;;2580057;53;20940;-82
2023/02/24 08:56:56;;;;;;;17.77;9.05;;;13.10;60.70;;;;;;2579908;53;21311;-83
2023/02/24 08:59:48;;;;;;;16.45;7.97;;;13.10;60.70;;;;;;2337379;54;21481;-83
2023/02/24 09:02:23;;;;;;;16.60;7.85;;;13.10;60.70;;;;;;2337279;53;20953;-84
2023/02/24 09:04:57;;;;;;;19.42;8.90;;;13.20;60.90;;;;;;2580059;53;20924;-82
2023/02/24 09:07:34;;;;;;;12.27;6.90;;;13.20;60.90;;;;;;2580729;53;20908;-83
2023/02/24 09:10:02;;;;;;;19.17;8.57;;;13.20;60.90;;;;;;2580148;53;20949;-83
2023/02/24 09:12:28;;;;;;;15.45;8.00;;;13.30;61.00;;;;;;2580895;53;21039;-84
2023/02/24 09:15:03;;;;;;;16.27;7.75;;;13.30;61.00;;;;;;2337519;53;20968;-83
2023/02/24 09:17:39;;;;;;;23.62;8.68;;;13.20;60.90;;;;;;2582008;53;21027;-84
2023/02/24 09:23:06;;;;;;;18.80;8.18;;;13.40;61.00;;;;;;2577534;53;20937;-83
2023/02/24 09:25:43;;;;;;;15.07;8.07;;;13.40;60.70;;;;;;2578912;53;21043;-84
2023/02/24 09:28:31;;;;;;;12.68;7.03;;;13.40;60.80;;;;;;2579741;53;21060;-82
2023/02/24 09:30:59;;;;;;;14.32;6.97;;;13.40;60.70;;;;;;2579911;53;21048;-85
2023/02/24 09:33:37;;;;;;;16.15;7.22;;;13.40;60.70;;;;;;2580633;53;21020;-83
2023/02/24 09:36:26;;;;;;;17.00;8.07;;;13.50;60.70;;;;;;2337139;53;21461;-83
2023/02/24 09:42:14;;;;;;;22.15;9.98;;;13.40;60.50;;;;;;2337566;53;20984;-85
2023/02/24 09:44:47;;;;;;;16.20;8.07;;;13.50;60.60;;;;;;2337551;54;20968;-83
2023/02/24 09:47:38;;;;;;;15.60;7.60;;;13.50;60.70;;;;;;2559552;53;22139;-83
2023/02/24 09:50:59;;;;;;;16.10;7.40;;;13.50;60.60;;;;;;2562737;53;20973;-83
2023/02/24 09:53:38;;;;;;;14.98;5.85;;;13.50;60.70;;;;;;2562758;53;20988;-84
2023/02/24 09:56:22;;;;;;;14.90;6.68;;;13.50;60.50;;;;;;2562236;53;20929;-84
2023/02/24 10:02:33;;;;;;;14.15;6.78;;;13.60;60.80;;;;;;2561790;53;20955;-84
2023/02/24 10:05:19;;;;;;;15.77;6.68;;;13.60;60.80;;;;;;2560135;53;20949;-85
2023/02/24 10:07:46;;;;;;;16.12;8.23;;;13.60;60.60;;;;;;2553155;53;21048;-85
2023/02/24 10:10:26;;;;;;;26.27;12.55;;;13.60;60.60;;;;;;2557504;53;21955;-85
2023/02/24 10:13:13;;;;;;;23.87;11.55;;;13.70;60.80;;;;;;2560887;52;21088;-87
2023/02/24 10:15:57;;;;;;;19.37;10.57;;;13.70;60.80;;;;;;2559210;53;20949;-83
2023/02/24 10:19:26;;;;;;;17.30;9.13;;;13.70;60.80;;;;;;2560320;53;20933;-82
2023/02/24 10:28:44;;;;;;;20.35;8.85;;;13.70;61.00;;;;;;2560504;53;22045;-84
2023/02/24 10:31:24;;;;;;;13.50;6.15;;;13.80;60.60;;;;;;2558697;53;20996;-83
2023/02/24 10:34:09;;;;;;;15.38;8.20;;;13.80;60.40;;;;;;2558134;53;22059;-84
2023/02/24 10:36:36;;;;;;;14.80;7.07;;;13.80;60.50;;;;;;2559681;53;20940;-83
2023/02/24 10:39:14;;;;;;;17.15;7.60;;;13.80;60.60;;;;;;2318018;53;20932;-83
2023/02/24 10:41:48;;;;;;;14.65;7.32;;;13.80;60.80;;;;;;2318933;54;21957;-83
2023/02/24 10:44:26;;;;;;;16.17;7.40;;;13.90;60.80;;;;;;2558889;53;21091;-85
2023/02/24 10:47:12;;;;;;;13.98;7.18;;;13.90;60.80;;;;;;2559692;53;20968;-83
2023/02/24 10:49:55;;;;;;;13.93;7.20;;;13.90;60.90;;;;;;2559913;53;20969;-84
2023/02/24 10:59:05;;;;;;;13.50;5.87;;;14.00;61.00;;;;;;2321760;53;20956;-84
2023/02/24 11:01:57;;;;;;;11.90;6.03;;;14.10;60.60;;;;;;2561827;53;20976;-83
2023/02/24 11:07:23;;;;;;;13.00;7.40;;;14.10;60.60;;;;;;2561319;53;21296;-85
2023/02/24 11:10:24;;;;;;;13.55;7.05;;;14.10;60.50;;;;;;2321433;53;20941;-84
2023/02/24 11:18:34;;;;;;;16.90;8.40;;;14.20;60.40;;;;;;2321651;53;22007;-84
2023/02/24 11:21:03;;;;;;;15.60;7.75;;;14.20;60.30;;;;;;2321561;53;20980;-84
2023/02/24 11:23:35;;;;;;;16.30;8.48;;;14.20;60.30;;;;;;2561783;53;20960;-84
2023/02/24 11:26:18;;;;;;;14.38;7.60;;;14.20;60.30;;;;;;2559529;53;21123;-84
2023/02/24 11:28:58;;;;;;;16.10;8.93;;;14.20;60.30;;;;;;2320275;53;21063;-83
2023/02/24 11:32:32;;;;;;;17.85;9.43;;;14.30;60.30;;;;;;2561042;53;20928;-84
2023/02/24 11:35:26;;;;;;;15.80;8.48;;;14.30;60.30;;;;;;2561101;53;21231;-82
2023/02/24 11:38:26;;;;;;;15.00;7.28;;;14.30;60.10;;;;;;2324498;53;20928;-82
2023/02/24 11:41:04;;;;;;;13.40;6.72;;;14.30;60.00;;;;;;2566473;53;21028;-83
2023/02/24 11:43:32;;;;;;;13.85;7.43;;;14.30;60.00;;;;;;2325513;53;22052;-84
2023/02/24 11:46:10;;;;;;;15.13;7.65;;;14.30;60.00;;;;;;2325161;54;21995;-83
2023/02/24 11:48:51;;;;;;;11.32;6.85;;;14.30;60.10;;;;;;2325160;53;21039;-83
2023/02/24 11:51:22;;;;;;;17.40;9.57;;;14.30;60.10;;;;;;2565572;53;20941;-84
2023/02/24 11:53:57;;;;;;;17.48;9.68;;;14.30;60.20;;;;;;2557123;53;21308;-83
2023/02/24 11:57:07;;;;;;;19.70;10.10;;;14.30;60.30;;;;;;2566770;53;20940;-83
2023/02/24 11:59:41;;;;;;;15.15;8.30;;;14.30;60.30;;;;;;2567711;53;21397;-82
2023/02/24 12:04:51;;;;;;;16.05;8.63;;;14.40;60.40;;;;;;2565847;53;20959;-83
2023/02/24 12:07:40;;;;;;;14.68;7.70;;;14.40;60.30;;;;;;2567222;53;20941;-83
2023/02/24 12:10:30;;;;;;;18.12;8.48;;;14.40;60.30;;;;;;2325482;54;20977;-84
2023/02/24 12:13:37;;;;;;;24.25;12.32;;;14.40;60.20;;;;;;2325668;53;21465;-84
2023/02/24 12:16:11;;;;;;;20.77;11.38;;;14.50;60.40;;;;;;2566867;53;20929;-85
2023/02/24 12:20:26;;;;;;;15.88;8.52;;;14.50;60.30;;;;;;2568083;53;21020;-83
2023/02/24 12:22:56;;;;;;;17.90;9.70;;;14.50;60.20;;;;;;2567785;53;20939;-85
2023/02/24 12:25:25;;;;;;;20.30;10.25;;;14.50;60.00;;;;;;2567410;53;21031;-83
2023/02/24 12:30:49;;;;;;;20.20;10.40;;;14.50;60.00;;;;;;2326457;53;20972;-84
2023/02/24 12:33:41;;;;;;;12.27;7.28;;;14.60;60.00;;;;;;2569808;53;21594;-83
2023/02/24 12:39:09;;;;;;;14.18;7.20;;;14.60;59.90;;;;;;2328375;53;20952;-82
2023/02/24 12:45:03;;;;;;;14.30;7.07;;;14.60;59.90;;;;;;2328496;53;21709;-83
2023/02/24 12:48:56;;;;;;;13.52;7.30;;;14.60;60.00;;;;;;2327157;54;20956;-84
2023/02/24 12:51:39;;;;;;;14.23;7.45;;;14.60;60.00;;;;;;2567478;53;22093;-84
2023/02/24 12:58:36;;;;;;;14.93;7.53;;;14.60;59.90;;;;;;2326329;53;22034;-84
2023/02/24 13:02:51;;;;;;;11.52;5.93;;;14.60;59.90;;;;;;2561685;53;20950;-84
2023/02/24 13:05:28;;;;;;;11.27;6.60;;;14.70;60.00;;;;;;2564319;53;21513;-83
2023/02/24 13:08:38;;;;;;;13.13;7.40;;;14.70;59.80;;;;;;2564775;53;20940;-83
2023/02/24 13:14:43;;;;;;;14.70;8.30;;;14.70;59.90;;;;;;2565140;53;21024;-83
2023/02/24 13:17:25;;;;;;;16.02;7.85;;;14.70;60.00;;;;;;2324156;53;20952;-84
2023/02/24 13:19:53;;;;;;;13.20;7.45;;;14.70;59.70;;;;;;2566639;53;21029;-84
2023/02/24 13:22:25;;;;;;;14.60;7.82;;;14.70;59.70;;;;;;2325047;53;20952;-84
2023/02/24 13:24:59;;;;;;;12.80;7.15;;;14.70;59.70;;;;;;2560208;53;20946;-82
2023/02/24 13:27:37;;;;;;;16.62;9.00;;;14.80;59.90;;;;;;2320815;53;21489;-85
2023/02/24 13:30:46;;;;;;;18.40;10.48;;;14.80;59.90;;;;;;2326216;54;20961;-83
2023/02/24 13:33:24;;;;;;;15.43;8.43;;;14.80;59.80;;;;;;2323193;53;21217;-83
2023/02/24 13:36:03;;;;;;;13.38;7.62;;;14.80;59.80;;;;;;2556371;53;21930;-83
2023/02/24 13:38:43;;;;;;;15.98;8.75;;;14.80;59.80;;;;;;2556245;53;20953;-82
2023/02/24 13:41:20;;;;;;;20.42;11.43;;;14.80;59.80;;;;;;2564505;53;20976;-82
2023/02/24 13:44:26;;;;;;;16.90;9.50;;;14.80;59.90;;;;;;2330190;54;20956;-84
2023/02/24 13:47:17;;;;;;;18.02;9.57;;;14.80;60.00;;;;;;2566056;53;20980;-82
2023/02/24 13:53:07;;;;;;;16.85;9.43;;;14.90;59.90;;;;;;2568116;53;22111;-84
2023/02/24 13:58:17;;;;;;;14.30;8.23;;;14.90;59.80;;;;;;2326560;54;21312;-82
2023/02/24 14:01:09;;;;;;;15.75;8.63;;;14.90;59.60;;;;;;2325211;54;20940;-85
2023/02/24 14:03:36;;;;;;;12.77;7.25;;;14.90;59.60;;;;;;2325451;53;20992;-84
2023/02/24 14:06:02;;;;;;;17.48;9.45;;;14.90;59.60;;;;;;2564644;53;20904;-85
2023/02/24 14:08:39;;;;;;;19.95;10.20;;;14.90;59.60;;;;;;2326605;53;20909;-86
2023/02/24 14:11:06;;;;;;;18.92;9.60;;;14.90;59.60;;;;;;2570988;53;21470;-85
2023/02/24 14:13:33;;;;;;;18.23;10.27;;;14.90;59.60;;;;;;2572933;53;21020;-86
2023/02/24 14:16:00;;;;;;;19.65;10.45;;;14.90;59.60;;;;;;2572025;53;20929;-87
2023/02/24 14:18:27;;;;;;;18.80;10.23;;;14.70;59.50;;;;;;2572057;53;20953;-85
2023/02/24 14:20:55;;;;;;;18.20;8.88;;;14.90;59.60;;;;;;2327585;53;22081;-86
2023/02/24 14:23:39;;;;;;;18.83;8.88;;;14.90;59.70;;;;;;2566914;53;20980;-86
2023/02/24 14:26:11;;;;;;;22.05;11.82;;;14.90;59.80;;;;;;2568567;53;21029;-84
2023/02/24 14:28:38;;;;;;;;;;;14.90;59.90;;;;;;2572000;53;20953;-84
2023/02/24 14:31:09;;;;;;;15.93;8.52;;;14.90;59.80;;;;;;2567439;53;20066;-84
2023/02/24 14:33:36;;;;;;;54.78;24.95;;;15.00;60.50;;;;;;2325545;54;20960;-84
2023/02/24 14:36:12;;;;;;;39.15;18.25;;;15.00;59.90;;;;;;2563426;53;20937;-84